createdAt,value
2023-05-15T00:01:24.535Z,21.40
2023-05-15T00:03:52.173Z,21.39
2023-05-15T00:06:19.581Z,21.38
2023-05-15T00:08:46.128Z,21.37
2023-05-15T00:11:13.044Z,21.37
2023-05-15T00:13:39.671Z,21.35
2023-05-15T00:16:07.753Z,21.34
2023-05-15T00:18:34.418Z,21.33
2023-05-15T00:21:00.956Z,21.32
2023-05-15T00:23:27.481Z,21.30
2023-05-15T00:25:54.075Z,21.30
2023-05-15T00:28:20.691Z,21.28
2023-05-15T00:30:47.206Z,21.26
2023-05-15T00:33:14.040Z,21.25
2023-05-15T00:35:40.765Z,21.23
2023-05-15T00:38:07.333Z,21.23
2023-05-15T00:40:35.745Z,21.19
2023-05-15T00:43:03.900Z,21.18
2023-05-15T00:45:30.616Z,21.17
2023-05-15T00:47:59.054Z,21.16
2023-05-15T00:50:26.127Z,21.15
2023-05-15T00:52:53.124Z,21.14
2023-05-15T00:55:19.727Z,21.12
2023-05-15T00:57:47.786Z,21.12
2023-05-15T01:00:16.850Z,21.11
2023-05-15T01:02:44.335Z,21.10
2023-05-15T01:05:11.092Z,21.09
2023-05-15T01:07:45.393Z,21.08
2023-05-15T01:10:12.075Z,21.06
2023-05-15T01:12:41.384Z,21.05
2023-05-15T01:15:08.286Z,21.04
2023-05-15T01:17:34.871Z,21.03
2023-05-15T01:20:06.362Z,21.02
2023-05-15T01:22:32.828Z,21.02
2023-05-15T01:25:08.328Z,21.00
2023-05-15T01:27:56.829Z,20.99
2023-05-15T01:30:32.421Z,20.99
2023-05-15T01:33:06.994Z,20.97
2023-05-15T01:35:39.681Z,20.97
2023-05-15T01:38:34.565Z,20.94
2023-05-15T01:41:23.881Z,20.92
2023-05-15T01:44:09.151Z,20.94
2023-05-15T01:46:39.673Z,20.92
2023-05-15T01:49:10.923Z,20.91
2023-05-15T01:51:39.033Z,20.90
2023-05-15T01:54:08.518Z,20.88
2023-05-15T01:56:36.458Z,20.87
2023-05-15T01:59:05.455Z,20.87
2023-05-15T02:01:33.759Z,20.85
2023-05-15T02:04:05.789Z,20.84
2023-05-15T02:06:33.798Z,20.83
2023-05-15T02:09:02.944Z,20.82
2023-05-15T02:11:29.484Z,20.82
2023-05-15T02:13:57.320Z,20.82
2023-05-15T02:16:23.879Z,20.80
2023-05-15T02:18:52.571Z,20.79
2023-05-15T02:21:19.314Z,20.79
2023-05-15T02:23:45.941Z,20.79
2023-05-15T02:26:37.315Z,20.77
2023-05-15T02:29:22.729Z,20.77
2023-05-15T02:31:55.204Z,20.76
2023-05-15T02:34:24.440Z,20.76
2023-05-15T02:36:53.183Z,20.75
2023-05-15T02:39:23.373Z,20.74
2023-05-15T02:41:50.583Z,20.74
2023-05-15T02:44:18.409Z,20.73
2023-05-15T02:46:47.401Z,20.72
2023-05-15T02:49:14.896Z,20.71
2023-05-15T02:51:42.907Z,20.69
2023-05-15T02:54:09.663Z,20.70
2023-05-15T02:56:36.181Z,20.70
2023-05-15T02:59:02.967Z,20.68
2023-05-15T03:01:29.587Z,20.67
2023-05-15T03:03:56.980Z,20.67
2023-05-15T03:06:23.641Z,20.66
2023-05-15T03:08:50.257Z,20.66
2023-05-15T03:11:19.198Z,20.66
2023-05-15T03:13:45.815Z,20.65
2023-05-15T03:16:12.287Z,20.65
2023-05-15T03:18:38.899Z,20.64
2023-05-15T03:21:05.692Z,20.63
2023-05-15T03:23:32.368Z,20.63
2023-05-15T03:25:58.905Z,20.61
2023-05-15T03:28:25.679Z,20.62
2023-05-15T03:30:52.261Z,20.61
2023-05-15T03:33:18.826Z,20.61
2023-05-15T03:35:45.611Z,20.61
2023-05-15T03:38:12.159Z,20.60
2023-05-15T03:40:39.650Z,20.60
2023-05-15T03:43:06.685Z,20.60
2023-05-15T03:45:35.036Z,20.60
2023-05-15T03:48:01.612Z,20.60
2023-05-15T03:50:28.266Z,20.61
2023-05-15T03:52:55.013Z,20.60
2023-05-15T03:55:21.650Z,20.60
2023-05-15T03:57:48.211Z,20.60
2023-05-15T04:00:15.877Z,20.60
2023-05-15T04:02:44.289Z,20.60
2023-05-15T04:05:11.176Z,20.60
2023-05-15T04:07:37.830Z,20.60
2023-05-15T04:10:07.971Z,20.60
2023-05-15T04:12:37.920Z,20.59
2023-05-15T04:15:22.467Z,20.60
2023-05-15T04:17:51.520Z,20.60
2023-05-15T04:20:20.672Z,20.59
2023-05-15T04:22:47.738Z,20.59
2023-05-15T04:25:16.070Z,20.59
2023-05-15T04:27:43.764Z,20.58
2023-05-15T04:30:11.476Z,20.59
2023-05-15T04:32:39.525Z,20.58
2023-05-15T04:35:11.852Z,20.57
2023-05-15T04:37:43.023Z,20.58
2023-05-15T04:40:10.214Z,20.58
2023-05-15T04:42:39.080Z,20.58
2023-05-15T04:45:07.151Z,20.57
2023-05-15T04:47:33.986Z,20.56
2023-05-15T04:50:00.733Z,20.55
2023-05-15T04:52:27.436Z,20.57
2023-05-15T04:54:55.709Z,20.57
2023-05-15T04:57:23.051Z,20.57
2023-05-15T04:59:49.851Z,20.58
2023-05-15T05:02:16.379Z,20.58
2023-05-15T05:04:44.160Z,20.58
2023-05-15T05:07:10.720Z,20.58
2023-05-15T05:09:40.123Z,20.58
2023-05-15T05:12:07.924Z,20.58
2023-05-15T05:14:34.766Z,20.59
2023-05-15T05:17:01.343Z,20.60
2023-05-15T05:19:30.976Z,20.59
2023-05-15T05:21:58.535Z,20.60
2023-05-15T05:24:25.244Z,20.60
2023-05-15T05:26:51.733Z,20.61
2023-05-15T05:29:18.249Z,20.62
2023-05-15T05:34:13.204Z,20.63
2023-05-15T05:36:39.758Z,20.64
2023-05-15T05:39:06.333Z,20.66
2023-05-15T05:41:32.927Z,20.67
2023-05-15T05:43:59.621Z,20.69
2023-05-15T05:46:27.279Z,20.69
2023-05-15T05:48:53.854Z,20.71
2023-05-15T05:51:20.707Z,20.73
2023-05-15T05:53:47.195Z,20.74
2023-05-15T05:56:13.848Z,20.74
2023-05-15T05:58:40.395Z,20.75
2023-05-15T06:01:07.054Z,20.75
2023-05-15T06:03:34.246Z,20.76
2023-05-15T06:06:01.046Z,20.76
2023-05-15T06:08:29.378Z,20.77
2023-05-15T06:10:56.052Z,20.79
2023-05-15T06:13:23.069Z,20.79
2023-05-15T06:15:50.816Z,20.79
2023-05-15T06:18:17.378Z,20.79
2023-05-15T06:20:43.935Z,20.79
2023-05-15T06:23:10.454Z,20.79
2023-05-15T06:25:37.046Z,20.79
2023-05-15T06:28:03.719Z,20.81
2023-05-15T06:30:30.213Z,20.81
2023-05-15T06:32:56.814Z,20.81
2023-05-15T06:35:26.572Z,20.82
2023-05-15T06:37:53.334Z,20.83
2023-05-15T06:40:20.989Z,20.84
2023-05-15T06:42:47.726Z,20.86
2023-05-15T06:45:14.279Z,20.86
2023-05-15T06:47:40.877Z,20.87
2023-05-15T06:50:08.001Z,20.89
2023-05-15T06:52:34.554Z,20.90
2023-05-15T06:55:01.334Z,20.91
2023-05-15T06:57:27.861Z,20.92
2023-05-15T06:59:54.364Z,20.93
2023-05-15T07:02:20.889Z,20.95
2023-05-15T07:04:47.505Z,20.95
2023-05-15T07:07:14.323Z,20.96
2023-05-15T07:09:41.228Z,20.98
2023-05-15T07:12:08.100Z,20.99
2023-05-15T07:14:34.615Z,21.00
2023-05-15T07:17:01.343Z,21.00
2023-05-15T07:19:27.940Z,21.01
2023-05-15T07:21:54.508Z,21.02
2023-05-15T07:24:21.034Z,21.02
2023-05-15T07:26:58.121Z,21.03
2023-05-15T07:29:25.690Z,21.03
2023-05-15T07:31:52.313Z,21.03
2023-05-15T07:34:18.899Z,21.03
2023-05-15T07:36:45.547Z,21.05
2023-05-15T07:39:12.287Z,21.05
2023-05-15T07:41:39.017Z,21.05
2023-05-15T07:44:06.012Z,21.06
2023-05-15T07:46:33.476Z,21.06
2023-05-15T07:49:00.047Z,21.09
2023-05-15T07:51:26.617Z,21.09
2023-05-15T07:53:53.138Z,21.10
2023-05-15T07:56:19.678Z,21.11
2023-05-15T07:58:46.217Z,21.12
2023-05-15T08:01:12.751Z,21.13
2023-05-15T08:03:39.354Z,21.13
2023-05-15T08:06:07.345Z,21.13
2023-05-15T08:08:34.339Z,21.13
2023-05-15T08:11:01.126Z,21.14
2023-05-15T08:13:28.692Z,21.13
2023-05-15T08:15:55.364Z,21.14
2023-05-15T08:18:21.913Z,21.13
2023-05-15T08:20:48.654Z,21.13
2023-05-15T08:23:15.246Z,21.13
2023-05-15T08:25:41.750Z,21.13
2023-05-15T08:28:08.314Z,21.13
2023-05-15T08:30:35.945Z,21.12
2023-05-15T08:33:02.539Z,21.12
2023-05-15T08:35:29.175Z,21.12
2023-05-15T08:37:55.836Z,21.11
2023-05-15T08:40:31.084Z,21.11
2023-05-15T08:43:14.966Z,21.11
2023-05-15T08:45:41.937Z,21.10
2023-05-15T08:48:16.223Z,21.08
2023-05-15T08:50:44.294Z,21.08
2023-05-15T08:53:12.503Z,21.08
2023-05-15T08:55:39.277Z,21.06
2023-05-15T08:58:07.308Z,21.05
2023-05-15T09:00:35.029Z,21.05
2023-05-15T09:03:01.903Z,21.04
2023-05-15T09:05:29.388Z,21.05
2023-05-15T09:07:57.109Z,21.04
2023-05-15T09:10:24.571Z,21.04
2023-05-15T09:12:52.188Z,21.03
2023-05-15T09:15:23.132Z,21.02
2023-05-15T09:17:50.899Z,21.02
2023-05-15T09:20:31.719Z,21.01
2023-05-15T09:23:00.314Z,21.01
2023-05-15T09:25:33.402Z,21.00
2023-05-15T09:28:01.127Z,21.00
2023-05-15T09:30:27.962Z,21.00
2023-05-15T09:32:56.665Z,20.99
2023-05-15T09:35:32.033Z,20.99
2023-05-15T09:38:02.558Z,20.98
2023-05-15T09:40:31.248Z,20.98
2023-05-15T09:42:58.344Z,20.98
2023-05-15T09:45:27.046Z,20.97
2023-05-15T09:47:55.857Z,20.99
2023-05-15T09:50:24.421Z,20.97
2023-05-15T09:52:51.913Z,20.97
2023-05-15T09:55:23.128Z,20.97
2023-05-15T09:58:15.630Z,20.97
2023-05-15T10:00:48.752Z,20.98
2023-05-15T10:03:18.732Z,20.97
2023-05-15T10:05:45.432Z,20.97
2023-05-15T10:08:12.745Z,20.97
2023-05-15T10:10:39.521Z,20.95
2023-05-15T10:13:08.063Z,20.95
2023-05-15T10:15:35.533Z,20.95
2023-05-15T10:18:04.554Z,20.95
2023-05-15T10:20:33.250Z,20.95
2023-05-15T10:23:02.663Z,20.95
2023-05-15T10:25:47.691Z,20.95
2023-05-15T10:28:15.975Z,20.96
2023-05-15T10:30:42.941Z,20.96
2023-05-15T10:33:11.430Z,20.96
2023-05-15T10:35:39.877Z,20.95
2023-05-15T10:38:07.077Z,20.97
2023-05-15T10:40:37.851Z,20.97
2023-05-15T10:43:05.164Z,20.97
2023-05-15T10:45:33.253Z,20.98
2023-05-15T10:48:00.709Z,20.98
2023-05-15T10:50:27.638Z,20.99
2023-05-15T10:52:55.635Z,21.00
2023-05-15T10:55:22.826Z,20.99
2023-05-15T10:57:49.583Z,20.99
2023-05-15T11:00:22.242Z,20.99
2023-05-15T11:02:49.629Z,21.00
2023-05-15T11:05:16.348Z,21.01
2023-05-15T11:07:42.937Z,21.03
2023-05-15T11:10:39.452Z,21.03
2023-05-15T11:13:06.397Z,21.07
2023-05-15T11:15:46.639Z,21.07
2023-05-15T11:18:13.870Z,21.08
2023-05-15T11:20:42.972Z,21.09
2023-05-15T11:23:09.727Z,21.11
2023-05-15T11:25:36.750Z,21.13
2023-05-15T11:28:04.586Z,21.16
2023-05-15T11:30:39.425Z,21.19
2023-05-15T11:33:11.367Z,21.24
2023-05-15T11:35:45.896Z,21.27
2023-05-15T11:38:24.629Z,21.29
2023-05-15T11:40:56.698Z,21.32
2023-05-15T11:43:30.157Z,21.35
2023-05-15T11:45:58.661Z,21.36
2023-05-15T11:48:31.978Z,21.38
2023-05-15T11:50:58.563Z,21.41
2023-05-15T11:53:26.659Z,21.42
2023-05-15T11:55:54.581Z,21.44
2023-05-15T11:58:22.248Z,21.45
2023-05-15T12:00:51.460Z,21.46
2023-05-15T12:03:24.967Z,21.47
2023-05-15T12:05:59.097Z,21.48
2023-05-15T12:08:30.879Z,21.52
2023-05-15T12:10:58.817Z,21.52
2023-05-15T12:13:25.483Z,21.50
2023-05-15T12:15:52.162Z,21.50
2023-05-15T12:18:18.692Z,21.50
2023-05-15T12:20:46.758Z,21.50
2023-05-15T12:23:17.804Z,21.50
2023-05-15T12:25:46.987Z,21.51
2023-05-15T12:28:14.479Z,21.51
2023-05-15T12:30:42.398Z,21.51
2023-05-15T12:33:10.826Z,21.51
2023-05-15T12:35:42.457Z,21.49
2023-05-15T12:38:09.322Z,21.49
2023-05-15T12:40:38.662Z,21.48
2023-05-15T12:43:07.132Z,21.49
2023-05-15T12:45:35.410Z,21.46
2023-05-15T12:48:02.417Z,21.45
2023-05-15T12:50:31.966Z,21.44
2023-05-15T12:53:01.856Z,21.45
2023-05-15T12:55:36.705Z,21.44
2023-05-15T12:58:11.080Z,21.44
2023-05-15T13:00:40.536Z,21.43
2023-05-15T13:03:09.885Z,21.44
2023-05-15T13:05:38.082Z,21.44
2023-05-15T13:08:07.553Z,21.43
2023-05-15T13:10:36.406Z,21.43
2023-05-15T13:13:03.065Z,21.43
2023-05-15T13:15:36.815Z,21.42
2023-05-15T13:18:21.121Z,21.41
2023-05-15T13:20:49.915Z,21.41
2023-05-15T13:23:18.467Z,21.39
2023-05-15T13:25:45.361Z,21.37
2023-05-15T13:28:12.744Z,21.36
2023-05-15T13:30:43.127Z,21.35
2023-05-15T13:33:11.768Z,21.33
2023-05-15T13:35:39.118Z,21.32
2023-05-15T13:38:05.960Z,21.32
2023-05-15T13:40:35.438Z,21.31
2023-05-15T13:43:02.094Z,21.31
2023-05-15T13:45:28.770Z,21.30
2023-05-15T13:47:56.019Z,21.30
2023-05-15T13:50:22.698Z,21.28
2023-05-15T13:52:49.285Z,21.27
2023-05-15T13:55:16.063Z,21.26
2023-05-15T13:57:43.555Z,21.24
2023-05-15T14:00:15.492Z,21.23
2023-05-15T14:02:43.994Z,21.20
2023-05-15T14:05:12.204Z,21.18
2023-05-15T14:07:39.020Z,21.17
2023-05-15T14:10:06.319Z,21.16
2023-05-15T14:12:33.104Z,21.16
2023-05-15T14:15:00.675Z,21.16
2023-05-15T14:17:28.027Z,21.16
2023-05-15T14:19:54.709Z,21.16
2023-05-15T14:22:24.598Z,21.17
2023-05-15T14:24:52.384Z,21.18
2023-05-15T14:27:19.166Z,21.18
2023-05-15T14:29:45.972Z,21.18
2023-05-15T14:32:12.620Z,21.18
2023-05-15T14:34:39.222Z,21.17
2023-05-15T14:37:05.869Z,21.16
2023-05-15T14:39:32.824Z,21.17
2023-05-15T14:41:59.407Z,21.17
2023-05-15T14:44:26.063Z,21.16
2023-05-15T14:47:14.912Z,21.14
2023-05-15T14:49:41.459Z,21.14
2023-05-15T14:52:09.628Z,21.13
2023-05-15T14:54:38.304Z,21.12
2023-05-15T14:57:05.060Z,21.10
2023-05-15T14:59:31.618Z,21.08
2023-05-15T15:01:58.216Z,21.06
2023-05-15T15:04:26.616Z,21.05
2023-05-15T15:06:56.979Z,21.05
2023-05-15T15:09:25.212Z,21.04
2023-05-15T15:11:52.412Z,21.02
2023-05-15T15:14:19.020Z,21.01
2023-05-15T15:16:46.450Z,21.00
2023-05-15T15:19:13.725Z,20.99
2023-05-15T15:21:40.441Z,20.98
2023-05-15T15:24:07.274Z,20.98
2023-05-15T15:26:33.963Z,20.98
2023-05-15T15:29:03.275Z,21.00
2023-05-15T15:31:30.956Z,21.04
2023-05-15T15:33:58.274Z,21.05
2023-05-15T15:36:25.569Z,21.06
2023-05-15T15:38:52.344Z,21.09
2023-05-15T15:41:21.123Z,21.09
2023-05-15T15:43:47.949Z,21.11
2023-05-15T15:46:14.572Z,21.13
2023-05-15T15:48:41.233Z,21.13
2023-05-15T15:51:07.919Z,21.15
2023-05-15T15:53:34.890Z,21.16
2023-05-15T15:56:01.597Z,21.18
2023-05-15T15:58:29.489Z,21.20
2023-05-15T16:00:56.203Z,21.20
2023-05-15T16:03:22.836Z,21.23
2023-05-15T16:05:49.443Z,21.27
2023-05-15T16:08:15.982Z,21.28
2023-05-15T16:10:42.628Z,21.30
2023-05-15T16:13:09.356Z,21.32
2023-05-15T16:15:35.940Z,21.32
2023-05-15T16:18:02.458Z,21.34
2023-05-15T16:20:29.348Z,21.34
2023-05-15T16:22:56.097Z,21.35
2023-05-15T16:25:22.693Z,21.37
2023-05-15T16:27:49.278Z,21.37
2023-05-15T16:30:15.853Z,21.36
2023-05-15T16:32:42.473Z,21.37
2023-05-15T16:35:09.322Z,21.39
2023-05-15T16:37:36.030Z,21.39
2023-05-15T16:40:03.877Z,21.39
2023-05-15T16:42:35.022Z,21.39
2023-05-15T16:45:01.625Z,21.40
2023-05-15T16:47:28.189Z,21.41
2023-05-15T16:49:55.071Z,21.41
2023-05-15T16:52:22.240Z,21.41
2023-05-15T16:54:48.833Z,21.41
2023-05-15T16:57:15.637Z,21.43
2023-05-15T16:59:42.123Z,21.42
2023-05-15T17:02:08.743Z,21.42
2023-05-15T17:04:37.458Z,21.43
2023-05-15T17:07:06.153Z,21.43
2023-05-15T17:09:32.892Z,21.43
2023-05-15T17:11:59.720Z,21.43
2023-05-15T17:14:26.583Z,21.43
2023-05-15T17:16:53.135Z,21.43
2023-05-15T17:19:19.763Z,21.42
2023-05-15T17:21:46.351Z,21.43
2023-05-15T17:24:14.959Z,21.42
2023-05-15T17:26:42.180Z,21.43
2023-05-15T17:29:08.858Z,21.43
2023-05-15T17:31:36.772Z,21.44
2023-05-15T17:34:03.412Z,21.44
2023-05-15T17:36:30.013Z,21.44
2023-05-15T17:38:56.578Z,21.45
2023-05-15T17:41:23.106Z,21.44
2023-05-15T17:43:49.785Z,21.44
2023-05-15T17:46:16.539Z,21.45
2023-05-15T17:48:43.186Z,21.44
2023-05-15T17:51:09.752Z,21.46
2023-05-15T17:53:36.346Z,21.46
2023-05-15T17:56:03.709Z,21.46
2023-05-15T17:58:30.441Z,21.47
2023-05-15T18:00:57.206Z,21.45
2023-05-15T18:03:23.976Z,21.44
2023-05-15T18:05:51.847Z,21.45
2023-05-15T18:08:18.505Z,21.43
2023-05-15T18:10:45.118Z,21.44
2023-05-15T18:13:11.625Z,21.44
2023-05-15T18:15:38.474Z,21.44
2023-05-15T18:18:06.244Z,21.44
2023-05-15T18:20:32.846Z,21.43
2023-05-15T18:22:59.400Z,21.44
2023-05-15T18:25:26.570Z,21.44
2023-05-15T18:27:53.432Z,21.46
2023-05-15T18:30:19.989Z,21.46
2023-05-15T18:32:46.627Z,21.46
2023-05-15T18:35:13.220Z,21.47
2023-05-15T18:37:39.742Z,21.48
2023-05-15T18:40:06.834Z,21.49
2023-05-15T18:42:33.723Z,21.48
2023-05-15T18:45:00.297Z,21.47
2023-05-15T18:47:26.953Z,21.48
2023-05-15T18:49:53.536Z,21.48
2023-05-15T18:52:21.332Z,21.48
2023-05-15T18:54:48.006Z,21.48
2023-05-15T18:57:14.676Z,21.48
2023-05-15T18:59:41.967Z,21.48
2023-05-15T19:02:09.801Z,21.48
2023-05-15T19:04:36.692Z,21.47
2023-05-15T19:07:03.315Z,21.47
2023-05-15T19:09:29.890Z,21.46
2023-05-15T19:11:56.456Z,21.43
2023-05-15T19:14:23.017Z,21.41
2023-05-15T19:16:49.658Z,21.40
2023-05-15T19:19:16.848Z,21.39
2023-05-15T19:21:43.691Z,21.39
2023-05-15T19:24:10.410Z,21.38
2023-05-15T19:26:37.058Z,21.37
2023-05-15T19:29:03.632Z,21.37
2023-05-15T19:31:31.852Z,21.36
2023-05-15T19:34:00.320Z,21.36
2023-05-15T19:36:27.254Z,21.34
2023-05-15T19:38:53.862Z,21.34
2023-05-15T19:41:21.622Z,21.33
2023-05-15T19:43:50.640Z,21.31
2023-05-15T19:46:17.962Z,21.30
2023-05-15T19:48:44.677Z,21.28
2023-05-15T19:51:11.280Z,21.25
2023-05-15T19:53:37.779Z,21.22
2023-05-15T19:56:05.252Z,21.20
2023-05-15T19:58:32.325Z,21.16
2023-05-15T20:00:58.887Z,21.14
2023-05-15T20:03:33.206Z,21.11
2023-05-15T20:06:01.433Z,21.09
2023-05-15T20:08:28.946Z,21.06
2023-05-15T20:10:55.836Z,21.04
2023-05-15T20:13:22.503Z,21.01
2023-05-15T20:15:57.030Z,20.99
2023-05-15T20:18:28.535Z,20.95
2023-05-15T20:20:55.354Z,20.93
2023-05-15T20:23:22.416Z,20.91
2023-05-15T20:25:50.727Z,20.89
2023-05-15T20:28:17.879Z,20.85
2023-05-15T20:30:47.591Z,20.83
2023-05-15T20:33:14.438Z,20.81
2023-05-15T20:35:42.717Z,20.78
2023-05-15T20:38:10.420Z,20.78
2023-05-15T20:40:37.118Z,20.75
2023-05-15T20:43:03.713Z,20.73
2023-05-15T20:45:32.133Z,20.70
2023-05-15T20:47:58.936Z,20.67
2023-05-15T20:50:26.004Z,20.66
2023-05-15T20:52:52.962Z,20.62
2023-05-15T20:55:21.553Z,20.61
2023-05-15T20:57:49.129Z,20.59
2023-05-15T21:00:17.518Z,20.57
2023-05-15T21:02:45.433Z,20.54
2023-05-15T21:05:12.375Z,20.53
2023-05-15T21:07:38.880Z,20.51
2023-05-15T21:10:06.067Z,20.49
2023-05-15T21:12:32.853Z,20.47
2023-05-15T21:14:59.467Z,20.46
2023-05-15T21:17:26.055Z,20.44
2023-05-15T21:19:53.137Z,20.41
2023-05-15T21:22:19.689Z,20.40
2023-05-15T21:24:46.291Z,20.38
2023-05-15T21:27:12.846Z,20.36
2023-05-15T21:29:41.776Z,20.34
2023-05-15T21:32:08.524Z,20.33
2023-05-15T21:34:35.104Z,20.31
2023-05-15T21:37:01.648Z,20.28
2023-05-15T21:39:28.193Z,20.28
2023-05-15T21:41:54.751Z,20.26
2023-05-15T21:44:21.507Z,20.24
2023-05-15T21:46:48.128Z,20.24
2023-05-15T21:49:14.744Z,20.20
2023-05-15T21:51:41.282Z,20.19
2023-05-15T21:54:07.827Z,20.18
2023-05-15T21:56:34.525Z,20.18
2023-05-15T21:59:01.059Z,20.16
2023-05-15T22:01:27.656Z,20.15
2023-05-15T22:03:54.263Z,20.14
2023-05-15T22:06:20.812Z,20.13
2023-05-15T22:08:47.366Z,20.12
2023-05-15T22:11:13.926Z,20.10
2023-05-15T22:13:40.461Z,20.10
2023-05-15T22:16:07.074Z,20.08
2023-05-15T22:18:34.936Z,20.06
2023-05-15T22:21:03.035Z,20.05
2023-05-15T22:23:29.804Z,20.03
2023-05-15T22:25:56.365Z,20.02
2023-05-15T22:28:22.978Z,20.01
2023-05-15T22:30:49.802Z,19.99
2023-05-15T22:33:16.720Z,19.98
2023-05-15T22:35:43.312Z,19.97
2023-05-15T22:38:09.864Z,19.96
2023-05-15T22:40:36.354Z,19.94
2023-05-15T22:43:02.912Z,19.92
2023-05-15T22:45:29.461Z,19.92
2023-05-15T22:47:56.160Z,19.91
2023-05-15T22:50:22.784Z,19.90
2023-05-15T22:52:49.330Z,19.88
2023-05-15T22:55:16.010Z,19.87
2023-05-15T22:57:43.904Z,19.86
2023-05-15T23:00:11.269Z,19.84
2023-05-15T23:02:38.367Z,19.85
2023-05-15T23:05:05.595Z,19.83
2023-05-15T23:07:32.283Z,19.82
2023-05-15T23:09:58.883Z,19.81
2023-05-15T23:12:25.453Z,19.81
2023-05-15T23:14:51.983Z,19.80
2023-05-15T23:17:18.568Z,19.80
2023-05-15T23:19:45.129Z,19.77
2023-05-15T23:22:11.665Z,19.78
2023-05-15T23:24:38.174Z,19.76
2023-05-15T23:27:05.571Z,19.75
2023-05-15T23:29:33.901Z,19.73
2023-05-15T23:32:00.610Z,19.73
2023-05-15T23:34:28.377Z,19.73
2023-05-15T23:36:54.900Z,19.72
2023-05-15T23:39:21.554Z,19.71
2023-05-15T23:41:48.110Z,19.69
2023-05-15T23:44:14.673Z,19.69
2023-05-15T23:46:41.327Z,19.70
2023-05-15T23:49:07.929Z,19.68
2023-05-15T23:51:34.613Z,19.68
2023-05-15T23:54:01.162Z,19.68
2023-05-15T23:56:27.699Z,19.66
2023-05-15T23:58:54.252Z,19.66
